< < Back
Terminal Aerodrome Forecast


Current Version              Previous Versions:   1  2  3  4  5  6  7  8  9  

Terminal Aerodrome Forecast

822
FTUS42 KCAE 252331
TAFCAE
TAF
KCAE 252331Z 2600/2624 18007KT P6SM SCT060 SCT150
     FM260200 VRB04KT P6SM FEW150
     FM261500 22005KT P6SM SCT060=



Latest METAR

360
SAUS80 KWBC 260600 RRA
MTRCAE
METAR KCAE 260556Z 21008KT 10SM CLR 27/21 A3004 RMK AO2 SLP166 T02720211
10339 20272 50000


USA.gov is the U.S. government's official web portal to all federal, state and local government web resources and services.